Time;durP1;ratioP1;P1;durP2;ratioP2;P2;SDS_P1;SDS_P2;PMS_P1;PMS_P2;Temp;Humidity;BMP_temperature;BMP_pressure;BME280_temperature;BME280_humidity;BME280_pressure;Samples;Min_cycle;Max_cycle;Signal;HPM_P1;HPM_P2
2021/03/16 00:00:22;;;;;;;10.07;4.55;;;7.20;99.90;;;;;;5045714;28;20041;-64
2021/03/16 00:02:49;;;;;;;9.07;4.30;;;7.30;99.90;;;;;;5047125;28;20032;-64
2021/03/16 00:05:17;;;;;;;15.65;6.82;;;7.30;99.90;;;;;;5046748;28;20056;-64
2021/03/16 00:07:44;;;;;;;14.45;6.57;;;7.30;99.90;;;;;;5046534;28;20029;-65
2021/03/16 00:10:12;;;;;;;13.25;5.57;;;7.30;99.90;;;;;;5045484;28;20044;-65
2021/03/16 00:12:40;;;;;;;11.43;4.78;;;7.50;99.90;;;;;;5047436;28;20041;-65
2021/03/16 00:15:07;;;;;;;14.75;5.85;;;7.40;99.90;;;;;;5047415;28;20079;-65
2021/03/16 00:17:36;;;;;;;14.85;5.65;;;7.40;99.90;;;;;;5046738;28;20025;-65
2021/03/16 00:20:03;;;;;;;14.65;6.32;;;7.40;99.90;;;;;;5046378;28;20029;-64
2021/03/16 00:22:31;;;;;;;11.95;5.35;;;7.40;99.90;;;;;;5046501;28;20055;-65
2021/03/16 00:24:59;;;;;;;12.00;4.68;;;7.50;99.90;;;;;;5047122;28;20025;-65
2021/03/16 00:27:26;;;;;;;8.65;3.78;;;7.50;99.90;;;;;;5046622;28;20333;-65
2021/03/16 00:29:52;;;;;;;9.10;3.70;;;7.50;99.90;;;;;;5045493;28;20032;-65
2021/03/16 00:32:20;;;;;;;7.43;3.33;;;7.50;99.90;;;;;;5046182;28;20136;-65
2021/03/16 00:34:47;;;;;;;6.03;2.80;;;7.60;99.90;;;;;;5046497;28;20479;-65
2021/03/16 00:37:16;;;;;;;8.10;3.90;;;7.60;99.90;;;;;;5046355;28;20032;-65
2021/03/16 00:39:43;;;;;;;6.88;3.90;;;7.60;99.90;;;;;;5046690;28;20025;-66
2021/03/16 00:42:10;;;;;;;6.00;3.00;;;7.70;99.90;;;;;;5046393;28;20487;-66
2021/03/16 00:44:36;;;;;;;3.85;2.55;;;7.60;99.90;;;;;;5047471;28;20025;-65
2021/03/16 00:47:04;;;;;;;4.05;2.42;;;7.70;99.90;;;;;;5046275;28;20039;-65
2021/03/16 00:49:33;;;;;;;3.08;2.00;;;7.70;99.90;;;;;;5046051;28;20136;-65
2021/03/16 00:52:01;;;;;;;2.90;1.83;;;7.70;99.90;;;;;;5046164;28;20068;-66
2021/03/16 00:54:30;;;;;;;3.55;1.73;;;7.70;99.90;;;;;;5045964;28;20029;-66
2021/03/16 00:56:58;;;;;;;2.35;1.60;;;7.70;99.90;;;;;;5046142;28;20021;-65
2021/03/16 00:59:27;;;;;;;2.45;1.67;;;7.70;99.90;;;;;;5045650;28;20029;-66
2021/03/16 01:01:53;;;;;;;2.05;1.60;;;7.70;99.90;;;;;;5045919;28;20424;-66
2021/03/16 01:04:18;;;;;;;1.70;1.50;;;7.70;99.90;;;;;;5045745;28;20032;-66
2021/03/16 01:06:45;;;;;;;1.85;1.38;;;7.70;99.90;;;;;;5044915;28;20036;-66
2021/03/16 01:09:12;;;;;;;2.63;1.98;;;7.70;99.90;;;;;;5045368;28;20041;-65
2021/03/16 01:11:38;;;;;;;1.67;1.58;;;7.60;99.90;;;;;;5046206;28;20047;-65
2021/03/16 01:14:07;;;;;;;3.17;1.88;;;7.70;99.90;;;;;;5046198;28;20017;-65
2021/03/16 01:16:33;;;;;;;2.40;1.92;;;7.70;99.90;;;;;;5046052;28;20048;-65
2021/03/16 01:19:03;;;;;;;2.85;2.00;;;7.60;99.90;;;;;;5045653;28;20029;-65
2021/03/16 01:21:28;;;;;;;4.25;2.60;;;7.70;99.90;;;;;;5045732;28;20037;-65
2021/03/16 01:23:56;;;;;;;4.90;2.47;;;7.60;99.90;;;;;;5045850;28;20036;-65
2021/03/16 01:26:23;;;;;;;5.00;3.30;;;7.60;99.90;;;;;;5045281;28;20305;-65
2021/03/16 01:28:49;;;;;;;3.35;2.35;;;7.60;99.90;;;;;;5045724;28;20035;-65
2021/03/16 01:31:17;;;;;;;3.80;2.50;;;7.60;99.90;;;;;;5045250;28;20108;-65
2021/03/16 01:33:44;;;;;;;6.68;2.45;;;7.60;99.90;;;;;;5045601;28;20024;-66
2021/03/16 01:36:11;;;;;;;3.30;2.45;;;7.60;99.90;;;;;;5045529;28;20021;-66
2021/03/16 01:38:38;;;;;;;5.30;3.17;;;7.60;99.90;;;;;;5046112;28;20039;-66
2021/03/16 01:41:05;;;;;;;4.53;2.53;;;7.60;99.90;;;;;;5045928;28;20029;-65
2021/03/16 01:43:32;;;;;;;5.25;3.13;;;7.60;99.90;;;;;;5044802;28;20031;-65
2021/03/16 01:46:01;;;;;;;3.60;2.22;;;7.60;99.90;;;;;;5045550;28;20100;-65
2021/03/16 01:48:33;;;;;;;3.97;2.53;;;7.50;99.90;;;;;;5044228;28;20411;-65
2021/03/16 01:51:03;;;;;;;3.55;2.38;;;7.50;99.90;;;;;;5045728;28;20024;-65
2021/03/16 01:53:31;;;;;;;2.30;2.03;;;7.50;99.90;;;;;;5044975;28;20518;-65
2021/03/16 01:55:58;;;;;;;3.45;2.72;;;7.50;99.90;;;;;;5045324;28;20096;-65
2021/03/16 01:58:25;;;;;;;13.93;5.40;;;7.50;99.90;;;;;;5044798;28;20025;-65
2021/03/16 02:00:51;;;;;;;19.17;7.55;;;7.50;99.90;;;;;;5045163;28;20116;-65
2021/03/16 02:03:18;;;;;;;19.35;6.78;;;7.40;99.90;;;;;;5044723;28;20029;-65
2021/03/16 02:05:45;;;;;;;14.00;5.40;;;7.50;99.90;;;;;;5044939;28;20027;-65
2021/03/16 02:08:37;;;;;;;11.52;4.18;;;7.40;99.90;;;;;;5044135;28;20138;-66
2021/03/16 02:11:23;;;;;;;7.25;3.47;;;7.30;99.90;;;;;;5044084;28;20406;-65
2021/03/16 02:14:02;;;;;;;5.25;2.50;;;7.20;99.90;;;;;;5043855;28;20129;-65
2021/03/16 02:16:36;;;;;;;5.10;2.47;;;7.30;99.90;;;;;;5043585;28;20021;-65
2021/03/16 02:19:08;;;;;;;4.50;2.45;;;7.30;99.90;;;;;;5043817;28;20028;-65
2021/03/16 02:21:38;;;;;;;3.88;2.20;;;7.30;99.90;;;;;;5044239;28;20035;-66
2021/03/16 02:24:08;;;;;;;4.75;3.03;;;7.30;99.90;;;;;;5044232;28;20025;-66
2021/03/16 02:26:48;;;;;;;4.30;2.40;;;7.20;99.90;;;;;;5043670;28;20031;-66
2021/03/16 02:29:30;;;;;;;4.63;2.83;;;7.30;99.90;;;;;;5043537;28;20037;-65
2021/03/16 02:32:05;;;;;;;4.18;2.53;;;7.30;99.90;;;;;;5043711;28;20025;-65
2021/03/16 02:34:35;;;;;;;5.03;2.90;;;7.20;99.90;;;;;;5043174;28;20021;-66
2021/03/16 02:37:09;;;;;;;4.65;2.75;;;7.10;99.90;;;;;;5042615;28;20511;-65
2021/03/16 02:39:39;;;;;;;4.33;2.87;;;7.20;99.90;;;;;;5044346;28;20442;-66
2021/03/16 02:42:09;;;;;;;3.88;2.45;;;7.20;99.90;;;;;;5043994;28;20052;-66
2021/03/16 02:44:37;;;;;;;3.50;2.15;;;7.20;99.90;;;;;;5044217;28;20107;-65
2021/03/16 02:47:06;;;;;;;3.22;2.22;;;7.30;99.90;;;;;;5043223;28;20052;-65
2021/03/16 02:49:41;;;;;;;4.00;2.05;;;7.20;99.90;;;;;;5043574;28;20510;-65
2021/03/16 02:52:10;;;;;;;3.38;2.00;;;7.30;99.90;;;;;;5043905;28;20025;-65
2021/03/16 02:54:39;;;;;;;2.55;2.00;;;7.20;99.90;;;;;;5044232;28;20029;-65
2021/03/16 02:57:07;;;;;;;2.72;2.08;;;7.20;99.90;;;;;;5044108;28;20059;-65
2021/03/16 02:59:35;;;;;;;2.28;2.05;;;7.10;99.90;;;;;;5042042;28;20025;-65
2021/03/16 03:02:04;;;;;;;4.78;2.38;;;7.10;99.90;;;;;;5042946;28;20464;-65
2021/03/16 03:04:35;;;;;;;3.78;2.20;;;7.00;99.90;;;;;;5043155;28;20041;-66
2021/03/16 03:07:02;;;;;;;2.38;2.00;;;7.00;99.90;;;;;;5043398;28;20033;-66
2021/03/16 03:09:31;;;;;;;2.57;2.20;;;7.00;99.90;;;;;;5012074;28;873219;-65
2021/03/16 03:11:58;;;;;;;4.32;2.25;;;7.00;99.90;;;;;;5043682;28;20451;-65
2021/03/16 03:14:26;;;;;;;2.30;2.10;;;7.00;99.90;;;;;;5044013;28;20383;-65
2021/03/16 03:16:54;;;;;;;3.03;2.00;;;6.90;99.90;;;;;;5043821;28;20045;-65
2021/03/16 03:19:23;;;;;;;2.20;1.90;;;6.80;99.90;;;;;;5043752;28;20653;-65
2021/03/16 03:22:12;;;;;;;3.47;2.38;;;6.80;99.90;;;;;;5043937;28;20517;-66
2021/03/16 03:24:44;;;;;;;6.20;2.47;;;6.80;99.90;;;;;;5044373;28;20507;-65
2021/03/16 03:27:22;;;;;;;2.65;1.92;;;6.80;99.90;;;;;;5043651;28;20545;-65
2021/03/16 03:29:50;;;;;;;2.58;2.10;;;6.80;99.90;;;;;;5043753;28;20483;-65
2021/03/16 03:32:23;;;;;;;3.63;2.50;;;6.80;99.90;;;;;;5043301;28;20175;-65
2021/03/16 03:34:53;;;;;;;6.35;3.47;;;6.80;99.90;;;;;;5043887;28;20021;-66
2021/03/16 03:37:25;;;;;;;7.53;4.03;;;6.90;99.90;;;;;;5043477;28;20033;-66
2021/03/16 03:39:54;;;;;;;8.27;4.80;;;6.70;99.90;;;;;;5043808;28;20029;-66
2021/03/16 03:42:23;;;;;;;6.75;3.42;;;6.70;99.90;;;;;;5043432;28;20552;-66
2021/03/16 03:44:53;;;;;;;5.50;3.30;;;6.70;99.90;;;;;;5043744;28;20017;-65
2021/03/16 03:47:23;;;;;;;6.22;3.03;;;6.70;99.90;;;;;;5043311;28;20048;-65
2021/03/16 03:49:52;;;;;;;5.07;2.90;;;6.60;99.90;;;;;;5043827;28;20025;-65
2021/03/16 03:52:22;;;;;;;4.88;3.03;;;6.60;99.90;;;;;;5041754;28;20033;-65
2021/03/16 03:54:51;;;;;;;3.22;2.50;;;6.70;99.90;;;;;;5043512;28;20017;-66
2021/03/16 03:57:20;;;;;;;2.75;2.13;;;6.60;99.90;;;;;;5043488;28;20025;-66
2021/03/16 03:59:50;;;;;;;2.83;2.08;;;6.50;99.90;;;;;;5043634;28;20025;-65
2021/03/16 04:02:19;;;;;;;3.63;2.20;;;6.50;99.90;;;;;;5043033;28;20029;-66
2021/03/16 04:04:47;;;;;;;2.92;2.33;;;6.50;99.90;;;;;;5043493;28;20021;-66
2021/03/16 04:07:16;;;;;;;3.33;2.00;;;6.40;99.90;;;;;;5043225;28;20033;-66
2021/03/16 04:09:43;;;;;;;2.50;2.30;;;6.40;99.90;;;;;;5042817;28;20029;-66
2021/03/16 04:12:12;;;;;;;10.52;5.95;;;6.40;99.90;;;;;;5046572;28;20104;-65
2021/03/16 04:14:42;;;;;;;8.90;4.78;;;6.30;99.90;;;;;;5047553;28;20487;-65
2021/03/16 04:17:10;;;;;;;7.35;3.92;;;6.30;99.90;;;;;;5047399;28;20017;-65
2021/03/16 04:19:39;;;;;;;6.05;4.13;;;6.30;99.90;;;;;;5047526;28;20024;-65
2021/03/16 04:22:06;;;;;;;6.00;3.30;;;6.20;99.90;;;;;;5047514;28;20029;-65
2021/03/16 04:24:32;;;;;;;4.93;2.92;;;6.20;99.90;;;;;;5046592;28;20021;-65
2021/03/16 04:27:01;;;;;;;4.55;2.67;;;6.20;99.90;;;;;;5046695;28;20045;-64
2021/03/16 04:29:29;;;;;;;4.18;2.53;;;6.20;99.90;;;;;;5047022;28;20025;-65
2021/03/16 04:31:55;;;;;;;5.07;3.20;;;6.20;99.90;;;;;;5046527;28;20033;-64
2021/03/16 04:34:23;;;;;;;4.55;2.97;;;6.20;99.90;;;;;;5047749;28;20047;-64
2021/03/16 04:36:51;;;;;;;2.97;2.53;;;6.10;99.90;;;;;;5047041;28;20563;-64
2021/03/16 04:39:19;;;;;;;3.90;2.45;;;6.20;99.90;;;;;;5047621;28;20411;-64
2021/03/16 04:41:48;;;;;;;3.13;2.30;;;6.20;99.90;;;;;;5048194;28;20510;-65
2021/03/16 04:44:16;;;;;;;2.80;2.20;;;6.30;99.90;;;;;;5048042;28;20052;-64
2021/03/16 04:46:42;;;;;;;3.33;2.17;;;6.40;99.90;;;;;;5048243;28;20056;-64
2021/03/16 04:49:10;;;;;;;3.20;2.22;;;6.50;99.90;;;;;;5048566;28;20116;-64
2021/03/16 04:51:38;;;;;;;3.50;2.55;;;6.70;99.90;;;;;;5048310;28;20028;-64
2021/03/16 04:54:04;;;;;;;3.38;2.42;;;6.80;99.90;;;;;;5047901;28;20139;-64
2021/03/16 04:56:32;;;;;;;3.95;2.75;;;6.70;99.90;;;;;;5047628;28;20029;-64
2021/03/16 04:59:00;;;;;;;4.72;2.78;;;6.70;99.90;;;;;;5048015;28;20025;-64
2021/03/16 05:01:27;;;;;;;5.53;2.70;;;6.60;99.90;;;;;;5047348;28;20029;-64
2021/03/16 05:03:53;;;;;;;4.15;2.60;;;6.60;99.90;;;;;;5047985;28;20032;-64
2021/03/16 05:06:22;;;;;;;3.90;2.20;;;6.60;99.90;;;;;;5045925;28;20048;-64
2021/03/16 05:08:50;;;;;;;3.17;2.67;;;6.50;99.90;;;;;;5046815;28;20023;-63
2021/03/16 05:11:16;;;;;;;3.17;2.33;;;6.50;99.90;;;;;;5047364;28;20033;-63
2021/03/16 05:13:44;;;;;;;3.40;2.47;;;6.50;99.90;;;;;;5047845;28;20060;-63
2021/03/16 05:16:11;;;;;;;3.47;2.55;;;6.40;99.90;;;;;;5047287;28;20503;-64
2021/03/16 05:18:39;;;;;;;4.53;2.67;;;6.40;99.90;;;;;;5048560;28;20045;-64
2021/03/16 05:21:07;;;;;;;3.88;2.83;;;6.40;99.90;;;;;;5047802;28;20064;-64
2021/03/16 05:23:33;;;;;;;3.55;2.83;;;6.30;99.90;;;;;;5046520;28;20029;-63
2021/03/16 05:26:01;;;;;;;3.72;3.00;;;6.30;99.90;;;;;;5046854;28;20036;-63
2021/03/16 05:28:27;;;;;;;3.55;2.63;;;6.20;99.90;;;;;;5046460;28;20029;-65
2021/03/16 05:30:56;;;;;;;5.63;2.80;;;6.40;99.90;;;;;;5045468;28;20035;-64
2021/03/16 05:33:23;;;;;;;5.43;2.60;;;6.40;99.90;;;;;;5045505;28;20437;-65
2021/03/16 05:35:50;;;;;;;2.85;2.53;;;6.40;99.90;;;;;;5045519;28;20446;-64
2021/03/16 05:38:19;;;;;;;4.40;2.70;;;6.50;99.90;;;;;;5045389;28;20021;-64
2021/03/16 05:40:47;;;;;;;6.10;2.58;;;6.40;99.90;;;;;;5045616;28;20021;-65
2021/03/16 05:43:15;;;;;;;2.80;2.03;;;6.20;99.90;;;;;;5045176;28;20036;-65
2021/03/16 05:45:43;;;;;;;2.75;2.25;;;6.20;99.90;;;;;;5045163;28;20040;-64
2021/03/16 05:48:12;;;;;;;3.92;3.22;;;6.30;99.90;;;;;;5045975;28;20103;-64
2021/03/16 05:50:41;;;;;;;3.45;2.30;;;6.30;99.90;;;;;;5045905;28;20033;-64
2021/03/16 05:53:09;;;;;;;3.53;2.35;;;6.30;99.90;;;;;;5045737;28;20364;-64
2021/03/16 05:55:38;;;;;;;3.38;2.42;;;6.20;99.90;;;;;;5045907;28;20028;-64
2021/03/16 05:58:06;;;;;;;2.80;2.40;;;6.10;99.90;;;;;;5045538;28;20025;-64
2021/03/16 06:00:34;;;;;;;3.05;2.47;;;6.10;99.90;;;;;;5044728;28;20028;-64
2021/03/16 06:03:03;;;;;;;4.70;2.80;;;6.10;99.90;;;;;;5045190;28;20041;-64
2021/03/16 06:05:32;;;;;;;4.65;3.10;;;6.00;99.90;;;;;;5044664;28;20115;-64
2021/03/16 06:08:00;;;;;;;4.55;3.10;;;6.00;99.90;;;;;;5044341;28;20507;-64
2021/03/16 06:10:28;;;;;;;4.15;2.83;;;6.00;99.90;;;;;;5044577;28;20029;-64
2021/03/16 06:12:57;;;;;;;5.43;2.90;;;6.00;99.90;;;;;;5044851;28;20025;-64
2021/03/16 06:15:26;;;;;;;6.20;3.00;;;6.00;99.90;;;;;;5044531;28;20464;-64
2021/03/16 06:17:55;;;;;;;3.42;2.90;;;6.00;99.90;;;;;;5044749;28;20029;-64
2021/03/16 06:20:39;;;;;;;6.40;3.20;;;6.00;99.90;;;;;;5044329;28;20025;-65
2021/03/16 06:23:07;;;;;;;6.30;3.25;;;6.00;99.90;;;;;;5045227;28;20029;-64
2021/03/16 06:25:40;;;;;;;5.10;2.88;;;5.90;99.90;;;;;;5044674;28;20061;-64
2021/03/16 06:28:15;;;;;;;4.72;3.70;;;6.00;99.90;;;;;;5045227;28;20040;-64
2021/03/16 06:30:44;;;;;;;3.83;2.97;;;5.90;99.90;;;;;;5044343;28;20017;-65
2021/03/16 06:33:20;;;;;;;4.43;3.40;;;6.00;99.90;;;;;;5043963;28;20140;-64
2021/03/16 06:36:00;;;;;;;4.40;2.70;;;6.00;99.90;;;;;;5044634;28;20502;-64
2021/03/16 06:38:28;;;;;;;3.63;2.88;;;6.00;99.90;;;;;;5044346;28;20033;-64
2021/03/16 06:41:07;;;;;;;3.90;3.10;;;6.10;99.90;;;;;;5044972;28;20029;-64
2021/03/16 06:43:37;;;;;;;5.13;3.30;;;6.10;99.90;;;;;;5044402;28;20029;-64
2021/03/16 06:46:03;;;;;;;8.50;4.50;;;6.10;99.90;;;;;;5044441;28;20033;-64
2021/03/16 06:48:37;;;;;;;12.05;4.90;;;6.00;99.90;;;;;;5044191;28;20112;-64
2021/03/16 06:51:30;;;;;;;15.38;6.57;;;6.00;99.90;;;;;;5042913;28;20100;-64
2021/03/16 06:54:11;;;;;;;13.57;6.45;;;5.90;99.90;;;;;;5043631;28;20033;-63
2021/03/16 06:56:39;;;;;;;15.30;6.70;;;5.70;99.90;;;;;;5043534;28;20021;-64
2021/03/16 06:59:08;;;;;;;15.82;6.88;;;5.90;99.90;;;;;;5044496;28;20021;-64
2021/03/16 07:01:36;;;;;;;12.55;5.38;;;5.90;99.90;;;;;;5043005;28;20029;-64
2021/03/16 07:04:16;;;;;;;8.98;4.68;;;5.90;99.90;;;;;;5044769;28;20040;-64
2021/03/16 07:06:42;;;;;;;8.10;4.07;;;6.00;99.90;;;;;;5045129;28;20057;-64
2021/03/16 07:09:13;;;;;;;9.93;5.07;;;5.90;99.90;;;;;;5045268;28;20479;-64
2021/03/16 07:11:45;;;;;;;20.85;7.32;;;5.80;99.90;;;;;;5045883;28;20044;-64
2021/03/16 07:14:13;;;;;;;19.30;8.13;;;5.60;99.90;;;;;;5043865;28;20025;-63
2021/03/16 07:16:43;;;;;;;12.43;5.88;;;5.70;99.90;;;;;;5045425;28;20698;-63
2021/03/16 07:19:10;;;;;;;9.68;4.93;;;5.80;99.90;;;;;;5045130;28;20033;-63
2021/03/16 07:21:51;;;;;;;12.02;5.78;;;5.80;99.90;;;;;;5045939;28;20033;-64
2021/03/16 07:24:25;;;;;;;13.98;5.53;;;5.70;99.90;;;;;;5044364;28;20033;-63
2021/03/16 07:26:53;;;;;;;10.35;4.97;;;5.60;99.90;;;;;;5043519;28;20037;-63
2021/03/16 07:29:22;;;;;;;12.63;6.10;;;5.50;99.90;;;;;;5044109;28;20032;-63
2021/03/16 07:31:51;;;;;;;13.77;6.22;;;5.60;99.90;;;;;;5044044;28;20028;-63
2021/03/16 07:34:21;;;;;;;15.57;6.68;;;5.60;99.90;;;;;;5044177;28;20108;-64
2021/03/16 07:36:51;;;;;;;10.77;5.45;;;5.80;99.90;;;;;;5045675;28;20077;-64
2021/03/16 07:39:22;;;;;;;10.65;4.40;;;5.90;99.90;;;;;;5045409;28;20017;-63
2021/03/16 07:41:51;;;;;;;14.35;6.05;;;6.00;99.90;;;;;;5045657;28;20071;-63
2021/03/16 07:44:18;;;;;;;13.80;5.53;;;5.70;99.90;;;;;;5043435;28;20365;-66
2021/03/16 07:46:48;;;;;;;8.85;4.75;;;5.80;99.90;;;;;;5046694;28;20036;-63
2021/03/16 07:49:29;;;;;;;7.40;3.97;;;5.80;99.90;;;;;;5049402;28;20036;-63
2021/03/16 07:51:57;;;;;;;6.72;3.47;;;5.80;99.90;;;;;;5049073;28;20133;-64
2021/03/16 07:54:32;;;;;;;8.20;3.42;;;6.00;99.90;;;;;;5047863;28;20430;-63
2021/03/16 07:57:02;;;;;;;6.15;3.58;;;6.20;99.90;;;;;;5048525;28;20021;-63
2021/03/16 07:59:39;;;;;;;3.90;2.78;;;6.20;99.90;;;;;;5049404;28;20028;-63
2021/03/16 08:02:08;;;;;;;4.25;2.70;;;6.40;99.90;;;;;;5048110;28;20380;-63
2021/03/16 08:04:41;;;;;;;3.85;2.63;;;6.50;99.90;;;;;;5049007;28;20029;-64
2021/03/16 08:07:11;;;;;;;6.88;2.90;;;6.50;99.90;;;;;;5048320;28;20048;-63
2021/03/16 08:09:50;;;;;;;5.53;3.13;;;6.50;99.90;;;;;;5048522;28;20035;-63
2021/03/16 08:12:18;;;;;;;6.75;2.88;;;6.50;99.90;;;;;;5047227;28;20120;-64
2021/03/16 08:14:47;;;;;;;3.40;2.47;;;6.70;99.90;;;;;;5048727;28;20024;-64
2021/03/16 08:17:31;;;;;;;3.75;2.50;;;6.70;99.90;;;;;;5045952;28;20060;-64
2021/03/16 08:20:00;;;;;;;3.78;2.45;;;6.80;99.90;;;;;;5047227;28;20096;-64
2021/03/16 08:22:29;;;;;;;3.97;2.00;;;6.60;99.90;;;;;;5047032;28;20098;-64
2021/03/16 08:25:10;;;;;;;3.30;2.22;;;6.70;99.90;;;;;;5079911;28;20021;-64
2021/03/16 08:27:39;;;;;;;4.45;2.03;;;6.80;99.90;;;;;;5048204;28;20029;-63
2021/03/16 08:30:09;;;;;;;2.83;2.00;;;6.90;99.90;;;;;;5048029;28;20052;-63
2021/03/16 08:32:40;;;;;;;1.98;1.70;;;7.00;99.90;;;;;;5046971;28;20511;-64
2021/03/16 08:35:08;;;;;;;5.30;2.60;;;7.00;99.90;;;;;;5047118;28;20029;-63
2021/03/16 08:37:37;;;;;;;7.85;3.60;;;6.80;99.90;;;;;;5046653;28;20021;-64
2021/03/16 08:40:06;;;;;;;7.45;3.33;;;6.60;99.90;;;;;;5047841;28;20021;-63
2021/03/16 08:42:35;;;;;;;5.38;2.42;;;6.70;99.90;;;;;;5047358;28;20021;-64
2021/03/16 08:45:04;;;;;;;4.30;2.08;;;7.10;99.90;;;;;;5047047;28;20029;-62
2021/03/16 08:47:32;;;;;;;5.45;2.38;;;7.00;99.90;;;;;;5045161;28;20505;-62
2021/03/16 08:49:58;;;;;;;5.60;3.15;;;6.70;99.90;;;;;;5046965;28;20014;-63
2021/03/16 08:52:31;;;;;;;3.15;1.77;;;6.80;99.90;;;;;;5046167;28;20028;-63
2021/03/16 08:55:02;;;;;;;3.37;2.20;;;7.20;99.90;;;;;;5045595;28;20021;-63
2021/03/16 08:57:32;;;;;;;3.10;1.70;;;6.90;99.90;;;;;;5045738;28;20036;-62
2021/03/16 09:00:02;;;;;;;3.30;1.92;;;7.10;99.90;;;;;;5046342;28;20096;-63
2021/03/16 09:02:31;;;;;;;2.70;1.33;;;7.20;99.90;;;;;;5045816;28;20025;-65
2021/03/16 09:04:59;;;;;;;5.72;2.28;;;7.40;99.90;;;;;;5045109;28;20252;-63
2021/03/16 09:07:39;;;;;;;4.38;1.95;;;7.30;99.90;;;;;;5046142;28;20096;-62
2021/03/16 09:10:07;;;;;;;2.15;1.38;;;7.40;99.90;;;;;;5045758;28;20029;-62
2021/03/16 09:12:36;;;;;;;1.33;1.20;;;7.50;99.90;;;;;;5045874;28;20049;-62
2021/03/16 09:15:10;;;;;;;2.20;1.25;;;7.40;99.90;;;;;;5045942;28;20116;-62
2021/03/16 09:17:36;;;;;;;;;;;7.60;99.90;;;;;;5046478;28;20047;-63
2021/03/16 09:20:15;;;;;;;0.95;0.90;;;7.50;99.90;;;;;;5046014;28;20310;-63
2021/03/16 09:22:44;;;;;;;3.17;1.00;;;7.60;99.90;;;;;;5045954;28;20577;-63
2021/03/16 09:25:12;;;;;;;2.28;1.15;;;7.40;99.90;;;;;;5044464;28;20029;-62
2021/03/16 09:27:39;;;;;;;2.15;0.90;;;7.50;99.90;;;;;;5045800;28;20020;-63
2021/03/16 09:30:08;;;;;;;4.40;1.75;;;7.50;99.90;;;;;;5045654;28;20029;-62
2021/03/16 09:32:37;;;;;;;4.40;1.40;;;7.50;99.90;;;;;;5045586;28;20028;-62
2021/03/16 09:35:04;;;;;;;5.38;2.60;;;7.40;99.90;;;;;;5045801;28;20021;-63
2021/03/16 09:37:42;;;;;;;12.20;3.33;;;7.20;99.90;;;;;;5045541;28;20037;-65
2021/03/16 09:40:10;;;;;;;6.95;2.42;;;7.10;99.90;;;;;;5045777;28;20039;-63
2021/03/16 09:42:48;;;;;;;4.95;2.33;;;7.10;99.90;;;;;;5045402;28;20029;-63
2021/03/16 09:45:20;;;;;;;2.60;1.77;;;7.30;99.90;;;;;;5044837;28;20013;-62
2021/03/16 09:47:50;;;;;;;5.13;2.20;;;7.30;99.90;;;;;;5045504;28;20025;-63
2021/03/16 09:50:20;;;;;;;3.35;2.13;;;7.10;99.90;;;;;;5045276;28;20029;-63
2021/03/16 09:52:49;;;;;;;3.42;1.60;;;7.10;99.90;;;;;;5045400;28;20496;-62
2021/03/16 09:55:19;;;;;;;1.95;1.17;;;7.20;99.90;;;;;;5045665;28;20025;-63
2021/03/16 09:57:48;;;;;;;2.78;1.25;;;7.30;99.90;;;;;;5045744;28;20025;-63
2021/03/16 10:00:16;;;;;;;2.10;1.17;;;7.30;99.90;;;;;;5045690;28;20388;-63
2021/03/16 10:02:44;;;;;;;2.47;1.35;;;7.60;99.90;;;;;;5045739;28;20021;-62
2021/03/16 10:05:12;;;;;;;1.60;1.13;;;7.40;99.90;;;;;;5043659;28;20059;-63
2021/03/16 10:07:42;;;;;;;1.88;1.00;;;7.40;99.90;;;;;;5044587;28;20025;-63
2021/03/16 10:10:12;;;;;;;1.30;0.80;;;7.30;99.90;;;;;;5044170;28;20024;-63
2021/03/16 10:12:41;;;;;;;2.38;1.00;;;7.40;99.90;;;;;;5044971;28;20025;-63
2021/03/16 10:15:08;;;;;;;1.92;0.80;;;7.50;99.90;;;;;;5045002;28;20052;-63
2021/03/16 10:17:36;;;;;;;1.10;0.60;;;7.40;99.90;;;;;;5045084;28;20104;-62
2021/03/16 10:20:09;;;;;;;0.90;0.65;;;7.40;99.90;;;;;;5045045;28;20025;-63
2021/03/16 10:22:36;;;;;;;1.77;0.80;;;7.40;99.90;;;;;;5044744;28;20028;-63
2021/03/16 10:25:10;;;;;;;2.05;0.70;;;7.60;99.90;;;;;;5044729;28;20275;-62
2021/03/16 10:27:39;;;;;;;4.03;0.97;;;7.70;99.90;;;;;;5044908;28;20021;-63
2021/03/16 10:30:09;;;;;;;1.33;0.70;;;7.80;99.90;;;;;;5044940;28;20025;-62
2021/03/16 10:32:38;;;;;;;2.28;0.95;;;7.90;99.90;;;;;;5044691;28;20033;-63
2021/03/16 10:35:06;;;;;;;2.47;0.73;;;8.10;99.90;;;;;;5044687;28;20029;-63
2021/03/16 10:37:33;;;;;;;2.70;1.00;;;8.00;99.90;;;;;;5044553;28;20013;-62
2021/03/16 10:40:00;;;;;;;3.00;1.00;;;8.00;99.90;;;;;;5044765;28;20035;-63
2021/03/16 10:42:28;;;;;;;1.63;0.88;;;8.10;99.90;;;;;;5044173;28;20075;-62
2021/03/16 10:44:57;;;;;;;3.60;1.42;;;8.40;99.90;;;;;;5045048;28;20021;-62
2021/03/16 10:47:25;;;;;;;1.40;1.15;;;8.20;99.90;;;;;;5042672;28;20029;-62
2021/03/16 10:49:51;;;;;;;2.03;0.88;;;8.30;99.90;;;;;;5045043;28;20025;-63
2021/03/16 10:52:19;;;;;;;1.13;1.00;;;8.40;99.90;;;;;;5043784;28;20048;-63
2021/03/16 10:54:47;;;;;;;3.63;1.60;;;8.40;99.90;;;;;;5076173;28;20025;-62
2021/03/16 10:57:15;;;;;;;2.78;1.67;;;8.10;99.90;;;;;;5044532;28;20021;-63
2021/03/16 10:59:44;;;;;;;2.95;1.50;;;7.90;99.90;;;;;;5044717;28;20032;-63
2021/03/16 11:02:11;;;;;;;2.95;1.35;;;8.20;99.90;;;;;;5043785;28;20395;-63
2021/03/16 11:04:38;;;;;;;2.13;1.08;;;8.30;99.90;;;;;;5043518;28;20457;-62
2021/03/16 11:07:04;;;;;;;2.05;1.40;;;8.30;99.90;;;;;;5044464;28;20029;-63
2021/03/16 11:09:32;;;;;;;2.25;1.52;;;8.50;99.90;;;;;;5043262;28;20451;-62
2021/03/16 11:11:59;;;;;;;1.95;0.85;;;8.70;99.90;;;;;;5044075;28;20025;-63
2021/03/16 11:14:27;;;;;;;2.15;1.27;;;8.70;99.90;;;;;;5044263;28;20028;-63
2021/03/16 11:16:55;;;;;;;3.35;1.48;;;8.80;99.90;;;;;;5044504;28;20029;-62
2021/03/16 11:19:23;;;;;;;3.90;1.50;;;8.70;99.90;;;;;;5043879;28;20448;-63
2021/03/16 11:21:51;;;;;;;2.90;1.33;;;8.60;99.90;;;;;;5047220;28;20029;-64
2021/03/16 11:24:19;;;;;;;2.10;1.60;;;9.00;99.90;;;;;;5046917;28;20025;-63
2021/03/16 11:26:45;;;;;;;2.28;1.38;;;9.00;99.90;;;;;;5048522;28;20407;-62
2021/03/16 11:29:14;;;;;;;1.73;1.25;;;8.90;99.90;;;;;;5047863;28;20560;-62
2021/03/16 11:31:42;;;;;;;1.38;1.10;;;8.80;99.90;;;;;;5047914;28;20056;-62
2021/03/16 11:34:10;;;;;;;1.75;1.30;;;9.20;99.90;;;;;;5047914;28;20021;-62
2021/03/16 11:36:38;;;;;;;1.75;1.00;;;9.10;99.90;;;;;;5048135;28;20072;-62
2021/03/16 11:39:05;;;;;;;1.88;0.90;;;9.50;99.90;;;;;;5047844;28;20025;-62
2021/03/16 11:41:31;;;;;;;2.40;0.90;;;9.40;99.90;;;;;;5047314;28;20041;-62
2021/03/16 11:43:57;;;;;;;0.98;0.77;;;9.50;99.90;;;;;;5047875;28;20032;-62
2021/03/16 11:46:23;;;;;;;1.48;0.98;;;9.60;99.90;;;;;;5046814;28;20033;-62
2021/03/16 11:48:49;;;;;;;1.40;1.00;;;9.50;99.90;;;;;;5047784;28;20411;-63
2021/03/16 11:51:17;;;;;;;1.23;1.00;;;9.30;99.90;;;;;;5048385;28;20165;-63
2021/03/16 11:53:46;;;;;;;2.13;0.88;;;9.70;99.90;;;;;;5047851;28;20107;-62
2021/03/16 11:56:14;;;;;;;3.03;1.05;;;9.80;99.90;;;;;;5048280;28;20028;-63
2021/03/16 11:58:42;;;;;;;5.35;1.30;;;9.80;99.90;;;;;;5047195;28;20108;-62
2021/03/16 12:01:10;;;;;;;3.17;0.80;;;9.20;99.90;;;;;;5047617;28;20033;-64
2021/03/16 12:03:39;;;;;;;1.80;0.70;;;9.70;99.90;;;;;;5046110;28;20025;-62
2021/03/16 12:06:08;;;;;;;0.93;0.80;;;9.90;99.90;;;;;;5047297;28;20491;-63
2021/03/16 12:08:37;;;;;;;2.45;0.88;;;10.00;99.90;;;;;;5046525;28;20037;-63
2021/03/16 12:11:04;;;;;;;2.38;1.33;;;10.40;99.90;;;;;;5047022;28;20432;-63
2021/03/16 12:13:32;;;;;;;3.95;1.92;;;10.40;99.30;;;;;;5046825;28;20059;-62
2021/03/16 12:16:00;;;;;;;5.25;2.00;;;10.40;98.70;;;;;;5047413;28;20025;-62
2021/03/16 12:18:28;;;;;;;2.95;1.50;;;10.00;98.10;;;;;;5046996;28;20025;-63
2021/03/16 12:20:57;;;;;;;3.97;2.38;;;9.90;98.60;;;;;;5046965;28;20028;-62
2021/03/16 12:23:29;;;;;;;3.85;1.95;;;10.00;98.70;;;;;;5047226;28;20029;-63
2021/03/16 12:25:58;;;;;;;6.85;2.83;;;10.30;98.30;;;;;;5046943;28;20029;-63
2021/03/16 12:28:26;;;;;;;4.60;2.92;;;9.90;98.40;;;;;;5044974;28;20086;-63
2021/03/16 12:30:58;;;;;;;3.38;1.90;;;10.50;98.10;;;;;;5047851;28;20028;-63
2021/03/16 12:33:26;;;;;;;2.20;1.30;;;11.00;98.60;;;;;;5046980;28;20457;-60
2021/03/16 12:35:53;;;;;;;2.83;1.58;;;10.90;97.20;;;;;;5046599;28;20025;-60
2021/03/16 12:38:20;;;;;;;2.00;1.33;;;10.70;97.60;;;;;;5045400;28;20501;-62
2021/03/16 12:40:46;;;;;;;3.88;2.22;;;11.10;97.30;;;;;;5046512;28;20031;-60
2021/03/16 12:43:14;;;;;;;3.22;1.75;;;10.80;96.40;;;;;;5047665;28;20499;-60
2021/03/16 12:45:42;;;;;;;3.78;2.17;;;11.00;97.20;;;;;;5045242;28;20028;-60
2021/03/16 12:48:12;;;;;;;2.92;1.67;;;11.10;95.70;;;;;;5047910;28;20033;-60
2021/03/16 12:50:40;;;;;;;1.67;1.05;;;11.50;95.60;;;;;;5044525;28;20086;-60
2021/03/16 12:53:06;;;;;;;3.35;1.35;;;11.50;96.20;;;;;;5045962;28;20037;-60
2021/03/16 12:55:32;;;;;;;1.90;0.90;;;11.70;96.90;;;;;;5045180;28;20029;-60
2021/03/16 12:57:59;;;;;;;1.98;1.10;;;11.30;94.70;;;;;;5047089;28;20103;-61
2021/03/16 13:00:28;;;;;;;3.70;0.93;;;11.30;94.90;;;;;;5047255;28;20104;-60
2021/03/16 13:02:56;;;;;;;1.42;0.90;;;11.60;95.40;;;;;;5045221;28;20029;-60
2021/03/16 13:05:23;;;;;;;1.13;0.75;;;11.10;93.20;;;;;;5047282;28;20100;-60